sensor_id;sensor_type;location;lat;lon;timestamp;temperature;humidity
46309;DHT22;32037;50.820;6.494;2022-12-07T00:01:38;5.70;91.00
46309;DHT22;32037;50.820;6.494;2022-12-07T00:04:08;5.70;91.00
46309;DHT22;32037;50.820;6.494;2022-12-07T00:06:40;5.80;91.20
46309;DHT22;32037;50.820;6.494;2022-12-07T00:09:12;5.80;91.10
46309;DHT22;32037;50.820;6.494;2022-12-07T00:11:42;5.70;91.00
46309;DHT22;32037;50.820;6.494;2022-12-07T00:14:12;5.70;91.00
46309;DHT22;32037;50.820;6.494;2022-12-07T00:16:42;5.80;91.10
46309;DHT22;32037;50.820;6.494;2022-12-07T00:19:11;5.80;91.10
46309;DHT22;32037;50.820;6.494;2022-12-07T00:21:43;5.80;91.10
46309;DHT22;32037;50.820;6.494;2022-12-07T00:24:11;5.80;91.20
46309;DHT22;32037;50.820;6.494;2022-12-07T00:26:42;5.80;91.20
46309;DHT22;32037;50.820;6.494;2022-12-07T00:29:15;5.80;91.10
46309;DHT22;32037;50.820;6.494;2022-12-07T00:31:43;5.80;91.20
46309;DHT22;32037;50.820;6.494;2022-12-07T00:34:14;5.80;91.20
46309;DHT22;32037;50.820;6.494;2022-12-07T00:36:42;5.80;91.20
46309;DHT22;32037;50.820;6.494;2022-12-07T00:39:11;5.70;91.10
46309;DHT22;32037;50.820;6.494;2022-12-07T00:41:40;5.80;91.10
46309;DHT22;32037;50.820;6.494;2022-12-07T00:44:10;5.70;91.00
46309;DHT22;32037;50.820;6.494;2022-12-07T00:46:38;5.80;91.10
46309;DHT22;32037;50.820;6.494;2022-12-07T00:49:06;5.80;91.20
46309;DHT22;32037;50.820;6.494;2022-12-07T00:51:34;5.80;91.10
46309;DHT22;32037;50.820;6.494;2022-12-07T00:54:04;5.80;91.20
46309;DHT22;32037;50.820;6.494;2022-12-07T00:56:32;5.80;91.20
46309;DHT22;32037;50.820;6.494;2022-12-07T00:59:03;5.80;91.10
46309;DHT22;32037;50.820;6.494;2022-12-07T01:01:34;5.80;91.10
46309;DHT22;32037;50.820;6.494;2022-12-07T01:04:04;5.80;91.10
46309;DHT22;32037;50.820;6.494;2022-12-07T01:06:32;5.80;91.10
46309;DHT22;32037;50.820;6.494;2022-12-07T01:09:01;5.80;91.10
46309;DHT22;32037;50.820;6.494;2022-12-07T01:11:30;5.80;91.10
46309;DHT22;32037;50.820;6.494;2022-12-07T01:13:59;5.80;91.10
46309;DHT22;32037;50.820;6.494;2022-12-07T01:16:29;5.80;91.10
46309;DHT22;32037;50.820;6.494;2022-12-07T01:19:00;5.80;91.10
46309;DHT22;32037;50.820;6.494;2022-12-07T01:21:33;5.80;91.00
46309;DHT22;32037;50.820;6.494;2022-12-07T01:24:06;5.80;91.10
46309;DHT22;32037;50.820;6.494;2022-12-07T01:26:35;5.80;91.60
46309;DHT22;32037;50.820;6.494;2022-12-07T01:29:03;5.80;91.10
46309;DHT22;32037;50.820;6.494;2022-12-07T01:31:31;5.80;91.20
46309;DHT22;32037;50.820;6.494;2022-12-07T01:34:01;5.80;91.10
46309;DHT22;32037;50.820;6.494;2022-12-07T01:36:31;5.80;91.10
46309;DHT22;32037;50.820;6.494;2022-12-07T01:39:03;5.80;91.10
46309;DHT22;32037;50.820;6.494;2022-12-07T01:41:34;5.80;91.10
46309;DHT22;32037;50.820;6.494;2022-12-07T01:44:18;5.80;91.10
46309;DHT22;32037;50.820;6.494;2022-12-07T01:46:48;5.80;91.10
46309;DHT22;32037;50.820;6.494;2022-12-07T01:49:27;5.80;91.20
46309;DHT22;32037;50.820;6.494;2022-12-07T01:52:01;5.80;91.10
46309;DHT22;32037;50.820;6.494;2022-12-07T01:54:33;5.80;91.10
46309;DHT22;32037;50.820;6.494;2022-12-07T01:57:03;5.80;91.10
46309;DHT22;32037;50.820;6.494;2022-12-07T01:59:33;5.80;91.20
46309;DHT22;32037;50.820;6.494;2022-12-07T02:02:04;5.80;91.20
46309;DHT22;32037;50.820;6.494;2022-12-07T02:04:36;5.80;91.20
46309;DHT22;32037;50.820;6.494;2022-12-07T02:07:05;5.80;91.20
46309;DHT22;32037;50.820;6.494;2022-12-07T02:09:37;5.80;91.10
46309;DHT22;32037;50.820;6.494;2022-12-07T02:12:05;5.80;91.10
46309;DHT22;32037;50.820;6.494;2022-12-07T02:14:34;5.80;91.10
46309;DHT22;32037;50.820;6.494;2022-12-07T02:17:09;5.80;91.00
46309;DHT22;32037;50.820;6.494;2022-12-07T02:23:18;5.80;91.00
46309;DHT22;32037;50.820;6.494;2022-12-07T02:26:09;5.80;91.10
46309;DHT22;32037;50.820;6.494;2022-12-07T02:29:07;5.80;91.10
46309;DHT22;32037;50.820;6.494;2022-12-07T02:31:41;5.80;91.10
46309;DHT22;32037;50.820;6.494;2022-12-07T02:34:17;5.80;91.00
46309;DHT22;32037;50.820;6.494;2022-12-07T02:36:52;5.80;91.10
46309;DHT22;32037;50.820;6.494;2022-12-07T02:39:28;5.80;91.10
46309;DHT22;32037;50.820;6.494;2022-12-07T02:42:02;5.80;91.10
46309;DHT22;32037;50.820;6.494;2022-12-07T02:44:32;5.80;91.10
46309;DHT22;32037;50.820;6.494;2022-12-07T02:47:03;5.80;91.60
46309;DHT22;32037;50.820;6.494;2022-12-07T02:49:33;5.80;91.10
46309;DHT22;32037;50.820;6.494;2022-12-07T02:52:01;5.80;91.10
46309;DHT22;32037;50.820;6.494;2022-12-07T02:54:30;5.80;91.20
46309;DHT22;32037;50.820;6.494;2022-12-07T02:57:06;5.80;91.20
46309;DHT22;32037;50.820;6.494;2022-12-07T02:59:48;5.80;91.10
46309;DHT22;32037;50.820;6.494;2022-12-07T03:02:27;5.80;91.00
46309;DHT22;32037;50.820;6.494;2022-12-07T03:05:08;5.80;91.10
46309;DHT22;32037;50.820;6.494;2022-12-07T03:07:49;5.80;91.20
46309;DHT22;32037;50.820;6.494;2022-12-07T03:10:27;5.80;91.10
46309;DHT22;32037;50.820;6.494;2022-12-07T03:13:02;5.80;91.10
46309;DHT22;32037;50.820;6.494;2022-12-07T03:15:40;5.80;91.10
46309;DHT22;32037;50.820;6.494;2022-12-07T03:18:13;5.80;91.10
46309;DHT22;32037;50.820;6.494;2022-12-07T03:20:44;5.80;91.00
46309;DHT22;32037;50.820;6.494;2022-12-07T03:23:16;5.80;91.00
46309;DHT22;32037;50.820;6.494;2022-12-07T03:25:50;5.80;91.00
46309;DHT22;32037;50.820;6.494;2022-12-07T03:28:30;5.80;91.10
46309;DHT22;32037;50.820;6.494;2022-12-07T03:31:03;5.80;91.10
46309;DHT22;32037;50.820;6.494;2022-12-07T03:33:42;5.80;91.00
46309;DHT22;32037;50.820;6.494;2022-12-07T03:36:17;5.80;91.00
46309;DHT22;32037;50.820;6.494;2022-12-07T03:38:50;5.80;91.10
46309;DHT22;32037;50.820;6.494;2022-12-07T03:41:24;5.80;91.10
46309;DHT22;32037;50.820;6.494;2022-12-07T03:43:54;5.80;91.00
46309;DHT22;32037;50.820;6.494;2022-12-07T03:46:32;5.80;91.20
46309;DHT22;32037;50.820;6.494;2022-12-07T03:49:08;5.80;91.10
46309;DHT22;32037;50.820;6.494;2022-12-07T03:51:43;5.80;91.10
46309;DHT22;32037;50.820;6.494;2022-12-07T03:54:17;5.80;91.20
46309;DHT22;32037;50.820;6.494;2022-12-07T03:56:47;5.80;91.10
46309;DHT22;32037;50.820;6.494;2022-12-07T03:59:17;5.80;91.00
46309;DHT22;32037;50.820;6.494;2022-12-07T04:01:53;5.80;91.00
46309;DHT22;32037;50.820;6.494;2022-12-07T04:04:22;5.80;91.00
46309;DHT22;32037;50.820;6.494;2022-12-07T04:06:51;5.80;91.00
46309;DHT22;32037;50.820;6.494;2022-12-07T04:09:19;5.80;91.10
46309;DHT22;32037;50.820;6.494;2022-12-07T04:11:48;5.80;91.00
46309;DHT22;32037;50.820;6.494;2022-12-07T04:14:16;5.80;91.10
46309;DHT22;32037;50.820;6.494;2022-12-07T04:16:49;5.80;91.00
46309;DHT22;32037;50.820;6.494;2022-12-07T04:19:21;5.80;91.00
46309;DHT22;32037;50.820;6.494;2022-12-07T04:21:51;5.80;91.00
46309;DHT22;32037;50.820;6.494;2022-12-07T04:24:19;5.80;91.00
46309;DHT22;32037;50.820;6.494;2022-12-07T04:26:48;5.80;91.00
46309;DHT22;32037;50.820;6.494;2022-12-07T04:29:17;5.80;91.00
46309;DHT22;32037;50.820;6.494;2022-12-07T04:31:46;5.80;91.00
46309;DHT22;32037;50.820;6.494;2022-12-07T04:34:15;5.80;91.00
46309;DHT22;32037;50.820;6.494;2022-12-07T04:36:46;5.80;91.00
46309;DHT22;32037;50.820;6.494;2022-12-07T04:39:19;5.80;91.00
46309;DHT22;32037;50.820;6.494;2022-12-07T04:41:48;5.80;91.00
46309;DHT22;32037;50.820;6.494;2022-12-07T04:44:17;5.80;91.00
46309;DHT22;32037;50.820;6.494;2022-12-07T04:46:46;5.80;91.00
46309;DHT22;32037;50.820;6.494;2022-12-07T04:49:15;5.80;91.00
46309;DHT22;32037;50.820;6.494;2022-12-07T04:51:46;5.80;91.00
46309;DHT22;32037;50.820;6.494;2022-12-07T04:54:16;5.80;91.00
46309;DHT22;32037;50.820;6.494;2022-12-07T04:56:44;5.80;91.00
46309;DHT22;32037;50.820;6.494;2022-12-07T04:59:13;5.80;90.90
46309;DHT22;32037;50.820;6.494;2022-12-07T05:01:42;5.80;91.00
46309;DHT22;32037;50.820;6.494;2022-12-07T05:04:11;5.80;91.00
46309;DHT22;32037;50.820;6.494;2022-12-07T05:06:40;5.80;91.00
46309;DHT22;32037;50.820;6.494;2022-12-07T05:09:10;5.80;90.90
46309;DHT22;32037;50.820;6.494;2022-12-07T05:11:38;5.80;91.00
46309;DHT22;32037;50.820;6.494;2022-12-07T05:14:11;5.80;91.10
46309;DHT22;32037;50.820;6.494;2022-12-07T05:16:41;5.80;91.00
46309;DHT22;32037;50.820;6.494;2022-12-07T05:19:10;5.80;91.00
46309;DHT22;32037;50.820;6.494;2022-12-07T05:21:39;5.80;91.00
46309;DHT22;32037;50.820;6.494;2022-12-07T05:24:11;5.80;91.00
46309;DHT22;32037;50.820;6.494;2022-12-07T05:26:41;5.80;91.00
46309;DHT22;32037;50.820;6.494;2022-12-07T05:29:11;5.80;91.00
46309;DHT22;32037;50.820;6.494;2022-12-07T05:31:39;5.80;91.00
46309;DHT22;32037;50.820;6.494;2022-12-07T05:34:08;5.80;91.00
46309;DHT22;32037;50.820;6.494;2022-12-07T05:36:37;5.80;91.00
46309;DHT22;32037;50.820;6.494;2022-12-07T05:39:05;5.80;91.00
46309;DHT22;32037;50.820;6.494;2022-12-07T05:41:35;5.80;91.00
46309;DHT22;32037;50.820;6.494;2022-12-07T05:44:21;5.80;91.10
46309;DHT22;32037;50.820;6.494;2022-12-07T05:46:49;5.80;91.00
46309;DHT22;32037;50.820;6.494;2022-12-07T05:49:18;5.80;91.00
46309;DHT22;32037;50.820;6.494;2022-12-07T05:51:47;5.80;91.00
46309;DHT22;32037;50.820;6.494;2022-12-07T05:54:15;5.80;91.00
46309;DHT22;32037;50.820;6.494;2022-12-07T05:56:45;5.80;91.00
46309;DHT22;32037;50.820;6.494;2022-12-07T05:59:13;5.80;91.00
46309;DHT22;32037;50.820;6.494;2022-12-07T06:01:49;5.80;91.00
46309;DHT22;32037;50.820;6.494;2022-12-07T06:04:18;5.80;90.90
46309;DHT22;32037;50.820;6.494;2022-12-07T06:06:47;5.80;90.90
46309;DHT22;32037;50.820;6.494;2022-12-07T06:09:16;5.80;90.90
46309;DHT22;32037;50.820;6.494;2022-12-07T06:11:46;5.80;91.00
46309;DHT22;32037;50.820;6.494;2022-12-07T06:14:32;5.80;91.00
46309;DHT22;32037;50.820;6.494;2022-12-07T06:17:01;5.80;90.90
46309;DHT22;32037;50.820;6.494;2022-12-07T06:19:29;5.80;91.00
46309;DHT22;32037;50.820;6.494;2022-12-07T06:21:58;5.80;91.00
46309;DHT22;32037;50.820;6.494;2022-12-07T06:24:27;5.80;91.00
46309;DHT22;32037;50.820;6.494;2022-12-07T06:26:57;5.90;91.00
46309;DHT22;32037;50.820;6.494;2022-12-07T06:29:25;5.80;90.90
46309;DHT22;32037;50.820;6.494;2022-12-07T06:31:54;5.80;91.00
46309;DHT22;32037;50.820;6.494;2022-12-07T06:34:23;5.80;90.90
46309;DHT22;32037;50.820;6.494;2022-12-07T06:36:52;5.80;91.00
46309;DHT22;32037;50.820;6.494;2022-12-07T06:39:23;5.80;90.90
46309;DHT22;32037;50.820;6.494;2022-12-07T06:41:52;5.80;90.90
46309;DHT22;32037;50.820;6.494;2022-12-07T06:44:23;5.80;90.90
46309;DHT22;32037;50.820;6.494;2022-12-07T06:46:52;5.80;90.90
46309;DHT22;32037;50.820;6.494;2022-12-07T06:49:40;5.80;90.90
46309;DHT22;32037;50.820;6.494;2022-12-07T06:52:09;5.80;90.90
46309;DHT22;32037;50.820;6.494;2022-12-07T06:54:37;5.80;90.90
46309;DHT22;32037;50.820;6.494;2022-12-07T06:57:06;5.80;90.90
46309;DHT22;32037;50.820;6.494;2022-12-07T06:59:35;5.80;90.90
46309;DHT22;32037;50.820;6.494;2022-12-07T07:02:04;5.80;90.90
46309;DHT22;32037;50.820;6.494;2022-12-07T07:04:33;5.80;90.90
46309;DHT22;32037;50.820;6.494;2022-12-07T07:07:01;5.80;90.90
46309;DHT22;32037;50.820;6.494;2022-12-07T07:09:29;5.80;90.90
46309;DHT22;32037;50.820;6.494;2022-12-07T07:11:58;5.80;90.90
46309;DHT22;32037;50.820;6.494;2022-12-07T07:14:26;5.80;90.90
46309;DHT22;32037;50.820;6.494;2022-12-07T07:16:56;5.80;90.90
46309;DHT22;32037;50.820;6.494;2022-12-07T07:19:25;5.80;90.90
46309;DHT22;32037;50.820;6.494;2022-12-07T07:21:54;5.80;90.90
46309;DHT22;32037;50.820;6.494;2022-12-07T07:24:22;5.80;90.90
46309;DHT22;32037;50.820;6.494;2022-12-07T07:26:50;5.80;90.90
46309;DHT22;32037;50.820;6.494;2022-12-07T07:29:19;5.80;90.90
46309;DHT22;32037;50.820;6.494;2022-12-07T07:31:47;5.80;90.90
46309;DHT22;32037;50.820;6.494;2022-12-07T07:34:17;5.80;90.90
46309;DHT22;32037;50.820;6.494;2022-12-07T07:36:46;5.80;90.90
46309;DHT22;32037;50.820;6.494;2022-12-07T07:39:14;5.80;90.90
46309;DHT22;32037;50.820;6.494;2022-12-07T07:41:43;5.80;90.90
46309;DHT22;32037;50.820;6.494;2022-12-07T07:44:13;5.80;91.40
46309;DHT22;32037;50.820;6.494;2022-12-07T07:46:42;5.80;90.90
46309;DHT22;32037;50.820;6.494;2022-12-07T07:49:11;5.80;90.90
46309;DHT22;32037;50.820;6.494;2022-12-07T07:51:41;5.80;90.90
46309;DHT22;32037;50.820;6.494;2022-12-07T07:54:09;5.80;90.80
46309;DHT22;32037;50.820;6.494;2022-12-07T07:56:38;5.90;90.90
46309;DHT22;32037;50.820;6.494;2022-12-07T07:59:06;5.80;91.00
46309;DHT22;32037;50.820;6.494;2022-12-07T08:01:35;5.90;90.90
46309;DHT22;32037;50.820;6.494;2022-12-07T08:04:04;5.80;91.00
46309;DHT22;32037;50.820;6.494;2022-12-07T08:06:33;5.90;91.00
46309;DHT22;32037;50.820;6.494;2022-12-07T08:09:03;5.80;91.00
46309;DHT22;32037;50.820;6.494;2022-12-07T08:11:33;5.80;90.90
46309;DHT22;32037;50.820;6.494;2022-12-07T08:14:02;5.90;90.90
46309;DHT22;32037;50.820;6.494;2022-12-07T08:16:49;5.80;90.90
46309;DHT22;32037;50.820;6.494;2022-12-07T08:19:36;5.80;90.90
46309;DHT22;32037;50.820;6.494;2022-12-07T08:22:05;5.80;90.90
46309;DHT22;32037;50.820;6.494;2022-12-07T08:24:36;5.80;90.90
46309;DHT22;32037;50.820;6.494;2022-12-07T08:27:05;5.90;90.90
46309;DHT22;32037;50.820;6.494;2022-12-07T08:29:33;5.90;90.90
46309;DHT22;32037;50.820;6.494;2022-12-07T08:32:02;5.80;90.90
46309;DHT22;32037;50.820;6.494;2022-12-07T08:34:35;5.90;90.90
46309;DHT22;32037;50.820;6.494;2022-12-07T08:37:04;5.80;90.90
46309;DHT22;32037;50.820;6.494;2022-12-07T08:39:32;5.90;90.90
46309;DHT22;32037;50.820;6.494;2022-12-07T08:42:02;5.90;90.90
46309;DHT22;32037;50.820;6.494;2022-12-07T08:44:31;5.90;90.90
46309;DHT22;32037;50.820;6.494;2022-12-07T08:47:04;5.90;91.00
46309;DHT22;32037;50.820;6.494;2022-12-07T08:49:39;5.90;90.90
46309;DHT22;32037;50.820;6.494;2022-12-07T08:52:08;5.90;91.00
46309;DHT22;32037;50.820;6.494;2022-12-07T08:54:38;5.90;91.00
46309;DHT22;32037;50.820;6.494;2022-12-07T08:57:09;5.90;90.90
46309;DHT22;32037;50.820;6.494;2022-12-07T08:59:38;5.90;91.00
46309;DHT22;32037;50.820;6.494;2022-12-07T09:02:08;5.90;91.00
46309;DHT22;32037;50.820;6.494;2022-12-07T09:04:37;5.90;91.00
46309;DHT22;32037;50.820;6.494;2022-12-07T09:07:06;5.90;90.90
46309;DHT22;32037;50.820;6.494;2022-12-07T09:09:34;5.90;90.90
46309;DHT22;32037;50.820;6.494;2022-12-07T09:12:03;5.90;90.90
46309;DHT22;32037;50.820;6.494;2022-12-07T09:14:33;5.90;90.90
46309;DHT22;32037;50.820;6.494;2022-12-07T09:17:05;5.90;90.90
46309;DHT22;32037;50.820;6.494;2022-12-07T09:19:34;5.90;91.00
46309;DHT22;32037;50.820;6.494;2022-12-07T09:22:03;5.90;91.10
46309;DHT22;32037;50.820;6.494;2022-12-07T09:24:32;5.90;91.00
46309;DHT22;32037;50.820;6.494;2022-12-07T09:27:01;5.90;91.00
46309;DHT22;32037;50.820;6.494;2022-12-07T09:29:30;5.90;91.00
46309;DHT22;32037;50.820;6.494;2022-12-07T09:31:59;5.90;91.00
46309;DHT22;32037;50.820;6.494;2022-12-07T09:34:36;5.90;91.00
46309;DHT22;32037;50.820;6.494;2022-12-07T09:37:04;5.90;90.90
46309;DHT22;32037;50.820;6.494;2022-12-07T09:39:33;5.90;91.00
46309;DHT22;32037;50.820;6.494;2022-12-07T09:42:04;5.90;90.90
46309;DHT22;32037;50.820;6.494;2022-12-07T09:44:33;5.90;90.90
46309;DHT22;32037;50.820;6.494;2022-12-07T09:47:03;5.90;91.40
46309;DHT22;32037;50.820;6.494;2022-12-07T09:49:32;5.90;90.90
46309;DHT22;32037;50.820;6.494;2022-12-07T09:52:03;5.90;91.00
46309;DHT22;32037;50.820;6.494;2022-12-07T09:54:34;5.90;91.10
46309;DHT22;32037;50.820;6.494;2022-12-07T09:57:04;5.90;91.00
46309;DHT22;32037;50.820;6.494;2022-12-07T09:59:32;6.00;91.00
46309;DHT22;32037;50.820;6.494;2022-12-07T10:02:25;5.90;91.00
46309;DHT22;32037;50.820;6.494;2022-12-07T10:04:55;6.00;91.10
46309;DHT22;32037;50.820;6.494;2022-12-07T10:07:25;5.90;91.50
46309;DHT22;32037;50.820;6.494;2022-12-07T10:09:54;6.00;91.00
46309;DHT22;32037;50.820;6.494;2022-12-07T10:12:22;6.00;91.00
46309;DHT22;32037;50.820;6.494;2022-12-07T10:14:55;5.90;90.90
46309;DHT22;32037;50.820;6.494;2022-12-07T10:17:38;5.90;90.90
46309;DHT22;32037;50.820;6.494;2022-12-07T10:24:53;6.00;91.00
46309;DHT22;32037;50.820;6.494;2022-12-07T10:27:26;5.90;90.90
46309;DHT22;32037;50.820;6.494;2022-12-07T10:29:57;5.90;91.00
46309;DHT22;32037;50.820;6.494;2022-12-07T10:32:32;5.90;91.00
46309;DHT22;32037;50.820;6.494;2022-12-07T10:35:21;5.90;90.90
46309;DHT22;32037;50.820;6.494;2022-12-07T11:02:35;6.00;90.90
46309;DHT22;32037;50.820;6.494;2022-12-07T11:09:57;5.90;91.00
46309;DHT22;32037;50.820;6.494;2022-12-07T11:12:50;5.90;91.00
46309;DHT22;32037;50.820;6.494;2022-12-07T11:15:42;5.90;91.00
46309;DHT22;32037;50.820;6.494;2022-12-07T11:18:26;5.90;91.00
46309;DHT22;32037;50.820;6.494;2022-12-07T11:21:06;6.00;91.10
46309;DHT22;32037;50.820;6.494;2022-12-07T11:23:59;5.90;91.00
46309;DHT22;32037;50.820;6.494;2022-12-07T11:27:37;6.00;91.00
46309;DHT22;32037;50.820;6.494;2022-12-07T11:30:18;5.90;91.00
46309;DHT22;32037;50.820;6.494;2022-12-07T11:33:15;6.00;91.10
46309;DHT22;32037;50.820;6.494;2022-12-07T11:36:02;6.00;91.20
46309;DHT22;32037;50.820;6.494;2022-12-07T11:38:41;6.00;91.10
46309;DHT22;32037;50.820;6.494;2022-12-07T12:11:28;6.00;91.40
46309;DHT22;32037;50.820;6.494;2022-12-07T12:14:26;6.00;91.20
46309;DHT22;32037;50.820;6.494;2022-12-07T12:17:22;6.00;91.20
46309;DHT22;32037;50.820;6.494;2022-12-07T12:20:03;6.00;91.10
46309;DHT22;32037;50.820;6.494;2022-12-07T12:22:38;6.00;91.10
46309;DHT22;32037;50.820;6.494;2022-12-07T12:25:19;6.00;91.10
46309;DHT22;32037;50.820;6.494;2022-12-07T12:27:50;6.00;91.40
46309;DHT22;32037;50.820;6.494;2022-12-07T12:30:34;6.00;91.70
46309;DHT22;32037;50.820;6.494;2022-12-07T12:33:05;6.00;91.60
46309;DHT22;32037;50.820;6.494;2022-12-07T12:35:36;6.00;91.40
46309;DHT22;32037;50.820;6.494;2022-12-07T12:38:29;6.00;91.50
46309;DHT22;32037;50.820;6.494;2022-12-07T12:40:58;6.00;91.40
46309;DHT22;32037;50.820;6.494;2022-12-07T12:43:58;6.00;91.40
46309;DHT22;32037;50.820;6.494;2022-12-07T12:49:43;6.00;91.30
46309;DHT22;32037;50.820;6.494;2022-12-07T12:58:36;6.00;91.20
46309;DHT22;32037;50.820;6.494;2022-12-07T13:01:38;6.00;91.30
46309;DHT22;32037;50.820;6.494;2022-12-07T13:04:39;6.00;91.20
46309;DHT22;32037;50.820;6.494;2022-12-07T13:07:49;6.00;91.30
46309;DHT22;32037;50.820;6.494;2022-12-07T13:10:41;6.00;91.20
46309;DHT22;32037;50.820;6.494;2022-12-07T13:13:34;6.00;91.20
46309;DHT22;32037;50.820;6.494;2022-12-07T13:16:40;6.00;91.20
46309;DHT22;32037;50.820;6.494;2022-12-07T13:22:51;6.00;91.30
46309;DHT22;32037;50.820;6.494;2022-12-07T13:25:31;6.00;91.20
46309;DHT22;32037;50.820;6.494;2022-12-07T13:28:07;6.00;91.30
46309;DHT22;32037;50.820;6.494;2022-12-07T13:30:45;6.00;91.20
46309;DHT22;32037;50.820;6.494;2022-12-07T13:33:17;6.00;91.30
46309;DHT22;32037;50.820;6.494;2022-12-07T13:35:47;6.00;91.30
46309;DHT22;32037;50.820;6.494;2022-12-07T13:38:26;6.00;91.30
46309;DHT22;32037;50.820;6.494;2022-12-07T13:41:04;6.00;91.20
46309;DHT22;32037;50.820;6.494;2022-12-07T13:43:43;6.00;91.20
46309;DHT22;32037;50.820;6.494;2022-12-07T13:46:11;6.00;91.20
46309;DHT22;32037;50.820;6.494;2022-12-07T13:48:47;6.00;91.20
46309;DHT22;32037;50.820;6.494;2022-12-07T13:51:20;6.00;91.20
46309;DHT22;32037;50.820;6.494;2022-12-07T13:53:51;6.00;91.30
46309;DHT22;32037;50.820;6.494;2022-12-07T13:56:22;6.00;91.40
46309;DHT22;32037;50.820;6.494;2022-12-07T13:58:53;6.00;91.30
46309;DHT22;32037;50.820;6.494;2022-12-07T14:01:23;6.00;91.20
46309;DHT22;32037;50.820;6.494;2022-12-07T14:03:53;6.00;91.20
46309;DHT22;32037;50.820;6.494;2022-12-07T14:06:26;6.00;91.20
46309;DHT22;32037;50.820;6.494;2022-12-07T14:09:08;6.00;91.30
46309;DHT22;32037;50.820;6.494;2022-12-07T14:11:44;6.00;91.20
46309;DHT22;32037;50.820;6.494;2022-12-07T14:14:16;6.00;91.30
46309;DHT22;32037;50.820;6.494;2022-12-07T14:16:59;6.00;91.40
46309;DHT22;32037;50.820;6.494;2022-12-07T14:19:47;6.00;91.20
46309;DHT22;32037;50.820;6.494;2022-12-07T14:22:26;6.00;91.70
46309;DHT22;32037;50.820;6.494;2022-12-07T14:27:52;6.00;91.20
46309;DHT22;32037;50.820;6.494;2022-12-07T14:30:25;6.00;91.10
46309;DHT22;32037;50.820;6.494;2022-12-07T14:32:57;6.00;91.10
46309;DHT22;32037;50.820;6.494;2022-12-07T14:35:28;6.00;91.20
46309;DHT22;32037;50.820;6.494;2022-12-07T14:37:57;6.00;91.20
46309;DHT22;32037;50.820;6.494;2022-12-07T14:40:27;6.00;91.10
46309;DHT22;32037;50.820;6.494;2022-12-07T14:42:58;6.00;91.10
46309;DHT22;32037;50.820;6.494;2022-12-07T14:45:28;6.00;91.10
46309;DHT22;32037;50.820;6.494;2022-12-07T14:47:58;6.00;91.20
46309;DHT22;32037;50.820;6.494;2022-12-07T14:50:52;6.10;91.20
46309;DHT22;32037;50.820;6.494;2022-12-07T14:53:42;6.00;91.20
46309;DHT22;32037;50.820;6.494;2022-12-07T14:56:16;6.00;91.30
46309;DHT22;32037;50.820;6.494;2022-12-07T14:58:44;6.00;91.20
46309;DHT22;32037;50.820;6.494;2022-12-07T15:01:15;6.10;91.30
46309;DHT22;32037;50.820;6.494;2022-12-07T15:03:44;6.00;91.20
46309;DHT22;32037;50.820;6.494;2022-12-07T15:06:16;6.10;91.20
46309;DHT22;32037;50.820;6.494;2022-12-07T15:08:45;6.10;91.20
46309;DHT22;32037;50.820;6.494;2022-12-07T15:11:19;6.10;91.90
46309;DHT22;32037;50.820;6.494;2022-12-07T15:13:50;6.10;91.90
46309;DHT22;32037;50.820;6.494;2022-12-07T15:16:40;6.10;91.80
46309;DHT22;32037;50.820;6.494;2022-12-07T15:19:32;6.10;91.90
46309;DHT22;32037;50.820;6.494;2022-12-07T15:22:02;6.10;92.00
46309;DHT22;32037;50.820;6.494;2022-12-07T15:24:31;6.10;92.00
46309;DHT22;32037;50.820;6.494;2022-12-07T15:27:01;6.20;92.10
46309;DHT22;32037;50.820;6.494;2022-12-07T15:29:30;6.20;92.00
46309;DHT22;32037;50.820;6.494;2022-12-07T15:31:58;6.20;92.00
46309;DHT22;32037;50.820;6.494;2022-12-07T15:34:27;6.20;91.90
46309;DHT22;32037;50.820;6.494;2022-12-07T15:37:07;6.20;91.90
46309;DHT22;32037;50.820;6.494;2022-12-07T15:39:36;6.20;91.90
46309;DHT22;32037;50.820;6.494;2022-12-07T15:42:05;6.20;91.90
46309;DHT22;32037;50.820;6.494;2022-12-07T15:44:33;6.30;91.90
46309;DHT22;32037;50.820;6.494;2022-12-07T15:47:18;6.30;91.80
46309;DHT22;32037;50.820;6.494;2022-12-07T15:49:47;6.30;91.80
46309;DHT22;32037;50.820;6.494;2022-12-07T15:52:17;6.30;91.80
46309;DHT22;32037;50.820;6.494;2022-12-07T15:54:46;6.30;91.80
46309;DHT22;32037;50.820;6.494;2022-12-07T15:57:15;6.30;91.70
46309;DHT22;32037;50.820;6.494;2022-12-07T15:59:51;6.30;91.70
46309;DHT22;32037;50.820;6.494;2022-12-07T16:02:20;6.30;91.70
46309;DHT22;32037;50.820;6.494;2022-12-07T16:04:49;6.30;91.70
46309;DHT22;32037;50.820;6.494;2022-12-07T16:07:19;6.30;91.60
46309;DHT22;32037;50.820;6.494;2022-12-07T16:09:48;6.30;91.60
46309;DHT22;32037;50.820;6.494;2022-12-07T16:12:17;6.30;91.60
46309;DHT22;32037;50.820;6.494;2022-12-07T16:14:46;6.30;91.60
46309;DHT22;32037;50.820;6.494;2022-12-07T16:17:14;6.30;91.60
46309;DHT22;32037;50.820;6.494;2022-12-07T16:19:43;6.30;91.60
46309;DHT22;32037;50.820;6.494;2022-12-07T16:22:11;6.30;91.60
46309;DHT22;32037;50.820;6.494;2022-12-07T16:24:41;6.30;91.60
46309;DHT22;32037;50.820;6.494;2022-12-07T16:27:09;6.30;91.50
46309;DHT22;32037;50.820;6.494;2022-12-07T16:29:38;6.30;91.50
46309;DHT22;32037;50.820;6.494;2022-12-07T16:32:06;6.30;91.50
46309;DHT22;32037;50.820;6.494;2022-12-07T16:34:35;6.30;91.50
46309;DHT22;32037;50.820;6.494;2022-12-07T16:37:03;6.30;91.50
46309;DHT22;32037;50.820;6.494;2022-12-07T16:39:33;6.30;91.50
46309;DHT22;32037;50.820;6.494;2022-12-07T16:42:03;6.40;91.50
46309;DHT22;32037;50.820;6.494;2022-12-07T16:44:33;6.30;91.50
46309;DHT22;32037;50.820;6.494;2022-12-07T16:47:01;6.40;91.50
46309;DHT22;32037;50.820;6.494;2022-12-07T16:49:30;6.30;91.40
46309;DHT22;32037;50.820;6.494;2022-12-07T16:51:58;6.40;91.50
46309;DHT22;32037;50.820;6.494;2022-12-07T16:54:47;6.30;91.50
46309;DHT22;32037;50.820;6.494;2022-12-07T16:57:18;6.40;91.50
46309;DHT22;32037;50.820;6.494;2022-12-07T16:59:50;6.40;91.50
46309;DHT22;32037;50.820;6.494;2022-12-07T17:02:19;6.40;91.50
46309;DHT22;32037;50.820;6.494;2022-12-07T17:04:48;6.40;91.50
46309;DHT22;32037;50.820;6.494;2022-12-07T17:07:17;6.40;91.40
46309;DHT22;32037;50.820;6.494;2022-12-07T17:09:46;6.40;91.40
46309;DHT22;32037;50.820;6.494;2022-12-07T17:12:18;6.40;91.40
46309;DHT22;32037;50.820;6.494;2022-12-07T17:14:47;6.40;91.50
46309;DHT22;32037;50.820;6.494;2022-12-07T17:17:33;6.40;91.40
46309;DHT22;32037;50.820;6.494;2022-12-07T17:20:01;6.40;91.40
46309;DHT22;32037;50.820;6.494;2022-12-07T17:22:30;6.30;91.40
46309;DHT22;32037;50.820;6.494;2022-12-07T17:25:00;6.40;91.40
46309;DHT22;32037;50.820;6.494;2022-12-07T17:27:30;6.40;91.50
46309;DHT22;32037;50.820;6.494;2022-12-07T17:29:59;6.30;91.40
46309;DHT22;32037;50.820;6.494;2022-12-07T17:32:28;6.40;91.40
46309;DHT22;32037;50.820;6.494;2022-12-07T17:34:56;6.40;91.40
46309;DHT22;32037;50.820;6.494;2022-12-07T17:37:24;6.40;91.40
46309;DHT22;32037;50.820;6.494;2022-12-07T17:39:53;6.40;91.40
46309;DHT22;32037;50.820;6.494;2022-12-07T17:42:24;6.40;91.40
46309;DHT22;32037;50.820;6.494;2022-12-07T17:45:09;6.40;91.40